sensor_id;sensor_type;location;lat;lon;timestamp;pressure;altitude;pressure_sealevel;temperature;humidity
25722;BME280;13578;53.450;15.496;2023-06-22T00:00:06;100097.22;;;17.49;100.00
25722;BME280;13578;53.450;15.496;2023-06-22T00:03:11;100099.81;;;17.42;100.00
25722;BME280;13578;53.450;15.496;2023-06-22T00:06:11;100111.44;;;17.45;100.00
25722;BME280;13578;53.450;15.496;2023-06-22T00:09:12;100107.63;;;17.30;100.00
25722;BME280;13578;53.450;15.496;2023-06-22T00:12:13;100106.78;;;17.21;100.00
25722;BME280;13578;53.450;15.496;2023-06-22T00:15:13;100110.78;;;17.19;100.00
25722;BME280;13578;53.450;15.496;2023-06-22T00:18:14;100117.34;;;17.09;100.00
25722;BME280;13578;53.450;15.496;2023-06-22T00:21:15;100106.97;;;17.03;100.00
25722;BME280;13578;53.450;15.496;2023-06-22T00:24:16;100106.09;;;16.94;100.00
25722;BME280;13578;53.450;15.496;2023-06-22T00:27:17;100106.25;;;16.93;100.00
25722;BME280;13578;53.450;15.496;2023-06-22T00:30:18;100107.81;;;16.87;100.00
25722;BME280;13578;53.450;15.496;2023-06-22T00:33:19;100099.66;;;16.69;100.00
25722;BME280;13578;53.450;15.496;2023-06-22T00:36:19;100120.09;;;16.76;100.00
25722;BME280;13578;53.450;15.496;2023-06-22T00:39:20;100106.56;;;16.73;100.00
25722;BME280;13578;53.450;15.496;2023-06-22T00:42:21;100100.50;;;16.70;100.00
25722;BME280;13578;53.450;15.496;2023-06-22T00:45:22;100111.94;;;16.66;100.00
25722;BME280;13578;53.450;15.496;2023-06-22T00:48:24;100112.78;;;16.59;100.00
25722;BME280;13578;53.450;15.496;2023-06-22T00:51:24;100116.94;;;16.55;100.00
25722;BME280;13578;53.450;15.496;2023-06-22T00:54:25;100133.19;;;16.58;100.00
25722;BME280;13578;53.450;15.496;2023-06-22T00:57:26;100125.03;;;16.48;100.00
25722;BME280;13578;53.450;15.496;2023-06-22T01:00:28;100126.63;;;16.59;100.00
25722;BME280;13578;53.450;15.496;2023-06-22T01:03:29;100133.72;;;16.61;100.00
25722;BME280;13578;53.450;15.496;2023-06-22T01:06:35;100109.16;;;16.58;100.00
25722;BME280;13578;53.450;15.496;2023-06-22T01:09:57;100108.25;;;16.58;100.00
25722;BME280;13578;53.450;15.496;2023-06-22T01:13:05;100100.97;;;16.57;100.00
25722;BME280;13578;53.450;15.496;2023-06-22T01:16:21;100100.47;;;16.53;100.00
25722;BME280;13578;53.450;15.496;2023-06-22T01:19:47;100100.63;;;16.43;100.00
25722;BME280;13578;53.450;15.496;2023-06-22T01:29:37;100117.06;;;16.37;100.00
25722;BME280;13578;53.450;15.496;2023-06-22T01:32:40;100118.41;;;16.32;100.00
25722;BME280;13578;53.450;15.496;2023-06-22T01:35:41;100113.72;;;16.25;100.00
25722;BME280;13578;53.450;15.496;2023-06-22T01:38:43;100108.34;;;16.23;100.00
25722;BME280;13578;53.450;15.496;2023-06-22T01:41:45;100126.38;;;16.27;100.00
25722;BME280;13578;53.450;15.496;2023-06-22T01:44:47;100128.78;;;16.22;100.00
25722;BME280;13578;53.450;15.496;2023-06-22T01:47:48;100143.13;;;16.17;100.00
25722;BME280;13578;53.450;15.496;2023-06-22T01:50:49;100143.25;;;16.08;100.00
25722;BME280;13578;53.450;15.496;2023-06-22T01:53:49;100138.66;;;15.90;100.00
25722;BME280;13578;53.450;15.496;2023-06-22T01:56:50;100126.34;;;15.84;100.00
25722;BME280;13578;53.450;15.496;2023-06-22T02:00:03;100151.47;;;15.91;100.00
25722;BME280;13578;53.450;15.496;2023-06-22T02:03:23;100158.97;;;15.81;100.00
25722;BME280;13578;53.450;15.496;2023-06-22T02:06:33;100154.41;;;15.71;100.00
25722;BME280;13578;53.450;15.496;2023-06-22T02:09:38;100164.47;;;15.72;100.00
25722;BME280;13578;53.450;15.496;2023-06-22T02:12:42;100161.88;;;15.71;100.00
25722;BME280;13578;53.450;15.496;2023-06-22T02:15:44;100160.66;;;15.47;100.00
25722;BME280;13578;53.450;15.496;2023-06-22T02:18:46;100157.69;;;15.40;100.00
25722;BME280;13578;53.450;15.496;2023-06-22T02:21:47;100155.88;;;15.31;100.00
25722;BME280;13578;53.450;15.496;2023-06-22T02:24:48;100156.91;;;15.30;100.00
25722;BME280;13578;53.450;15.496;2023-06-22T02:27:48;100161.16;;;15.24;100.00
25722;BME280;13578;53.450;15.496;2023-06-22T02:30:49;100167.41;;;15.27;100.00
25722;BME280;13578;53.450;15.496;2023-06-22T02:33:49;100186.47;;;15.30;100.00
25722;BME280;13578;53.450;15.496;2023-06-22T02:36:50;100177.69;;;15.34;100.00
25722;BME280;13578;53.450;15.496;2023-06-22T02:39:51;100180.22;;;15.28;100.00
25722;BME280;13578;53.450;15.496;2023-06-22T02:42:52;100184.34;;;15.23;100.00
25722;BME280;13578;53.450;15.496;2023-06-22T02:45:53;100173.22;;;15.15;100.00
25722;BME280;13578;53.450;15.496;2023-06-22T02:48:53;100176.13;;;15.14;100.00
25722;BME280;13578;53.450;15.496;2023-06-22T02:51:54;100187.16;;;15.14;100.00
25722;BME280;13578;53.450;15.496;2023-06-22T02:54:55;100189.53;;;15.08;100.00
25722;BME280;13578;53.450;15.496;2023-06-22T02:57:56;100191.47;;;15.08;100.00
25722;BME280;13578;53.450;15.496;2023-06-22T03:00:57;100187.72;;;15.17;100.00
25722;BME280;13578;53.450;15.496;2023-06-22T03:03:58;100188.22;;;15.31;100.00
25722;BME280;13578;53.450;15.496;2023-06-22T03:06:58;100194.91;;;15.28;100.00
25722;BME280;13578;53.450;15.496;2023-06-22T03:10:02;100192.28;;;15.45;100.00
25722;BME280;13578;53.450;15.496;2023-06-22T03:13:04;100194.16;;;15.62;100.00
25722;BME280;13578;53.450;15.496;2023-06-22T03:16:05;100183.50;;;15.76;100.00
25722;BME280;13578;53.450;15.496;2023-06-22T03:19:05;100198.63;;;16.08;100.00
25722;BME280;13578;53.450;15.496;2023-06-22T03:22:06;100230.25;;;16.40;100.00
25722;BME280;13578;53.450;15.496;2023-06-22T03:25:08;100250.19;;;16.86;100.00
25722;BME280;13578;53.450;15.496;2023-06-22T03:28:15;100259.50;;;17.28;100.00
25722;BME280;13578;53.450;15.496;2023-06-22T03:31:16;100267.16;;;17.59;100.00
25722;BME280;13578;53.450;15.496;2023-06-22T03:34:17;100267.34;;;17.82;100.00
25722;BME280;13578;53.450;15.496;2023-06-22T03:37:17;100277.78;;;17.97;100.00
25722;BME280;13578;53.450;15.496;2023-06-22T03:40:18;100276.34;;;18.09;100.00
25722;BME280;13578;53.450;15.496;2023-06-22T03:43:18;100274.59;;;18.16;100.00
25722;BME280;13578;53.450;15.496;2023-06-22T03:46:19;100283.09;;;18.31;100.00
25722;BME280;13578;53.450;15.496;2023-06-22T03:49:20;100278.06;;;18.27;100.00
25722;BME280;13578;53.450;15.496;2023-06-22T03:52:23;100295.75;;;18.42;100.00
25722;BME280;13578;53.450;15.496;2023-06-22T03:55:25;100296.63;;;18.34;100.00
25722;BME280;13578;53.450;15.496;2023-06-22T03:58:26;100291.59;;;18.30;100.00
25722;BME280;13578;53.450;15.496;2023-06-22T04:01:26;100297.50;;;18.27;100.00
25722;BME280;13578;53.450;15.496;2023-06-22T04:04:27;100290.22;;;18.25;100.00
25722;BME280;13578;53.450;15.496;2023-06-22T04:07:28;100303.41;;;18.23;100.00
25722;BME280;13578;53.450;15.496;2023-06-22T04:10:28;100303.41;;;18.07;100.00
25722;BME280;13578;53.450;15.496;2023-06-22T04:13:29;100298.38;;;18.10;100.00
25722;BME280;13578;53.450;15.496;2023-06-22T04:16:29;100304.13;;;18.17;100.00
25722;BME280;13578;53.450;15.496;2023-06-22T04:19:30;100309.34;;;18.20;100.00
25722;BME280;13578;53.450;15.496;2023-06-22T04:22:31;100298.38;;;18.19;100.00
25722;BME280;13578;53.450;15.496;2023-06-22T04:25:31;100301.66;;;18.39;100.00
25722;BME280;13578;53.450;15.496;2023-06-22T04:28:32;100311.31;;;18.60;100.00
25722;BME280;13578;53.450;15.496;2023-06-22T04:31:35;100305.03;;;18.66;100.00
25722;BME280;13578;53.450;15.496;2023-06-22T04:34:38;100298.63;;;18.57;100.00
25722;BME280;13578;53.450;15.496;2023-06-22T04:37:39;100290.44;;;18.72;100.00
25722;BME280;13578;53.450;15.496;2023-06-22T04:40:40;100298.59;;;18.73;100.00
25722;BME280;13578;53.450;15.496;2023-06-22T04:43:40;100285.53;;;18.74;100.00
25722;BME280;13578;53.450;15.496;2023-06-22T04:46:41;100301.84;;;18.94;100.00
25722;BME280;13578;53.450;15.496;2023-06-22T04:49:42;100291.63;;;19.17;100.00
25722;BME280;13578;53.450;15.496;2023-06-22T04:52:43;100307.22;;;19.27;100.00
25722;BME280;13578;53.450;15.496;2023-06-22T04:55:44;100316.56;;;19.34;100.00
25722;BME280;13578;53.450;15.496;2023-06-22T04:58:49;100324.09;;;19.25;100.00
25722;BME280;13578;53.450;15.496;2023-06-22T05:01:52;100321.16;;;19.18;100.00
25722;BME280;13578;53.450;15.496;2023-06-22T05:04:53;100320.16;;;19.43;100.00
25722;BME280;13578;53.450;15.496;2023-06-22T05:07:57;100323.47;;;19.70;100.00
25722;BME280;13578;53.450;15.496;2023-06-22T05:11:00;100315.88;;;19.87;100.00
25722;BME280;13578;53.450;15.496;2023-06-22T05:14:01;100307.66;;;20.08;100.00
25722;BME280;13578;53.450;15.496;2023-06-22T05:17:02;100301.34;;;20.14;100.00
25722;BME280;13578;53.450;15.496;2023-06-22T05:20:04;100307.53;;;20.25;100.00
25722;BME280;13578;53.450;15.496;2023-06-22T05:23:06;100310.63;;;20.60;100.00
25722;BME280;13578;53.450;15.496;2023-06-22T05:26:07;100302.34;;;20.52;100.00
25722;BME280;13578;53.450;15.496;2023-06-22T05:29:09;100312.69;;;20.28;100.00
25722;BME280;13578;53.450;15.496;2023-06-22T05:32:10;100312.91;;;20.41;100.00
25722;BME280;13578;53.450;15.496;2023-06-22T05:35:11;100305.44;;;20.42;100.00
25722;BME280;13578;53.450;15.496;2023-06-22T05:38:11;100293.03;;;20.44;100.00
25722;BME280;13578;53.450;15.496;2023-06-22T05:41:12;100304.94;;;20.53;100.00
25722;BME280;13578;53.450;15.496;2023-06-22T05:44:14;100296.47;;;20.31;100.00
25722;BME280;13578;53.450;15.496;2023-06-22T05:47:15;100296.66;;;20.30;100.00
25722;BME280;13578;53.450;15.496;2023-06-22T05:50:15;100299.75;;;20.50;100.00
25722;BME280;13578;53.450;15.496;2023-06-22T05:53:17;100307.84;;;20.60;100.00
25722;BME280;13578;53.450;15.496;2023-06-22T05:56:17;100303.72;;;20.56;100.00
25722;BME280;13578;53.450;15.496;2023-06-22T05:59:19;100312.44;;;20.53;100.00
25722;BME280;13578;53.450;15.496;2023-06-22T06:02:20;100312.22;;;20.77;100.00
25722;BME280;13578;53.450;15.496;2023-06-22T06:05:20;100297.19;;;20.93;100.00
25722;BME280;13578;53.450;15.496;2023-06-22T06:08:21;100307.91;;;21.12;100.00
25722;BME280;13578;53.450;15.496;2023-06-22T06:11:22;100313.28;;;21.28;100.00
25722;BME280;13578;53.450;15.496;2023-06-22T06:14:23;100310.75;;;21.33;100.00
25722;BME280;13578;53.450;15.496;2023-06-22T06:17:23;100302.59;;;21.32;100.00
25722;BME280;13578;53.450;15.496;2023-06-22T06:20:25;100303.25;;;21.55;100.00
25722;BME280;13578;53.450;15.496;2023-06-22T06:23:28;100300.69;;;21.54;100.00
25722;BME280;13578;53.450;15.496;2023-06-22T06:26:28;100326.38;;;21.49;100.00
25722;BME280;13578;53.450;15.496;2023-06-22T06:29:29;100316.59;;;21.38;100.00
25722;BME280;13578;53.450;15.496;2023-06-22T06:32:30;100321.41;;;21.45;100.00
25722;BME280;13578;53.450;15.496;2023-06-22T06:35:30;100332.97;;;21.78;100.00
25722;BME280;13578;53.450;15.496;2023-06-22T06:38:31;100330.97;;;21.94;100.00
25722;BME280;13578;53.450;15.496;2023-06-22T06:41:32;100323.16;;;22.11;100.00
25722;BME280;13578;53.450;15.496;2023-06-22T06:44:32;100321.00;;;22.06;100.00
25722;BME280;13578;53.450;15.496;2023-06-22T06:47:33;100321.88;;;21.85;100.00
25722;BME280;13578;53.450;15.496;2023-06-22T06:50:34;100317.94;;;21.79;100.00
25722;BME280;13578;53.450;15.496;2023-06-22T06:53:35;100314.66;;;21.97;100.00
25722;BME280;13578;53.450;15.496;2023-06-22T06:56:36;100325.91;;;22.32;100.00
25722;BME280;13578;53.450;15.496;2023-06-22T06:59:37;100331.78;;;22.37;100.00
25722;BME280;13578;53.450;15.496;2023-06-22T07:02:46;100328.38;;;22.71;100.00
25722;BME280;13578;53.450;15.496;2023-06-22T07:05:48;100306.66;;;22.73;100.00
25722;BME280;13578;53.450;15.496;2023-06-22T07:08:49;100322.63;;;22.79;100.00
25722;BME280;13578;53.450;15.496;2023-06-22T07:11:49;100312.03;;;22.39;100.00
25722;BME280;13578;53.450;15.496;2023-06-22T07:14:51;100316.06;;;22.36;100.00
25722;BME280;13578;53.450;15.496;2023-06-22T07:17:52;100295.34;;;22.24;100.00
25722;BME280;13578;53.450;15.496;2023-06-22T07:20:53;100288.72;;;22.32;100.00
25722;BME280;13578;53.450;15.496;2023-06-22T07:23:53;100270.09;;;22.39;100.00
25722;BME280;13578;53.450;15.496;2023-06-22T07:26:55;100280.91;;;22.49;100.00
25722;BME280;13578;53.450;15.496;2023-06-22T07:29:57;100302.50;;;22.62;100.00
25722;BME280;13578;53.450;15.496;2023-06-22T07:32:58;100288.38;;;22.77;100.00
25722;BME280;13578;53.450;15.496;2023-06-22T07:36:03;100295.09;;;22.82;100.00
25722;BME280;13578;53.450;15.496;2023-06-22T07:39:07;100298.47;;;23.13;100.00
25722;BME280;13578;53.450;15.496;2023-06-22T07:42:08;100296.44;;;23.42;100.00
25722;BME280;13578;53.450;15.496;2023-06-22T07:45:09;100306.25;;;23.86;100.00
25722;BME280;13578;53.450;15.496;2023-06-22T07:48:10;100301.72;;;23.85;100.00
25722;BME280;13578;53.450;15.496;2023-06-22T07:51:11;100301.91;;;23.84;100.00
25722;BME280;13578;53.450;15.496;2023-06-22T07:54:13;100282.88;;;23.45;100.00
25722;BME280;13578;53.450;15.496;2023-06-22T07:57:16;100284.16;;;23.43;100.00
25722;BME280;13578;53.450;15.496;2023-06-22T08:00:16;100292.50;;;23.29;100.00
25722;BME280;13578;53.450;15.496;2023-06-22T08:03:17;100293.00;;;23.40;100.00
25722;BME280;13578;53.450;15.496;2023-06-22T08:06:18;100297.09;;;23.44;100.00
25722;BME280;13578;53.450;15.496;2023-06-22T08:09:18;100254.69;;;23.60;94.34
25722;BME280;13578;53.450;15.496;2023-06-22T08:12:19;100259.03;;;23.97;94.83
25722;BME280;13578;53.450;15.496;2023-06-22T08:15:20;100253.66;;;24.08;90.64
25722;BME280;13578;53.450;15.496;2023-06-22T08:18:20;100257.72;;;24.13;88.81
25722;BME280;13578;53.450;15.496;2023-06-22T08:21:21;100263.13;;;24.27;90.74
25722;BME280;13578;53.450;15.496;2023-06-22T08:24:22;100239.41;;;24.17;87.46
25722;BME280;13578;53.450;15.496;2023-06-22T08:27:22;100249.75;;;24.23;90.47
25722;BME280;13578;53.450;15.496;2023-06-22T08:30:24;100252.56;;;24.03;90.95
25722;BME280;13578;53.450;15.496;2023-06-22T08:33:24;100250.34;;;24.58;88.26
25722;BME280;13578;53.450;15.496;2023-06-22T08:36:28;100251.81;;;24.74;89.29
25722;BME280;13578;53.450;15.496;2023-06-22T08:39:32;100256.00;;;24.38;88.11
25722;BME280;13578;53.450;15.496;2023-06-22T08:42:34;100261.19;;;24.15;90.74
25722;BME280;13578;53.450;15.496;2023-06-22T08:45:35;100250.84;;;24.02;87.56
25722;BME280;13578;53.450;15.496;2023-06-22T08:48:35;100245.22;;;24.02;86.01
25722;BME280;13578;53.450;15.496;2023-06-22T08:51:36;100251.28;;;24.12;86.71
25722;BME280;13578;53.450;15.496;2023-06-22T08:54:36;100270.66;;;24.40;93.61
25722;BME280;13578;53.450;15.496;2023-06-22T08:57:37;100247.13;;;24.55;87.42
25722;BME280;13578;53.450;15.496;2023-06-22T09:00:39;100245.88;;;24.24;85.87
25722;BME280;13578;53.450;15.496;2023-06-22T09:03:39;100255.13;;;24.51;87.64
25722;BME280;13578;53.450;15.496;2023-06-22T09:06:40;100262.41;;;24.59;90.97
25722;BME280;13578;53.450;15.496;2023-06-22T09:09:45;100266.94;;;24.73;91.09
25722;BME280;13578;53.450;15.496;2023-06-22T09:12:46;100253.75;;;24.81;89.04
25722;BME280;13578;53.450;15.496;2023-06-22T09:15:46;100249.78;;;24.95;85.08
25722;BME280;13578;53.450;15.496;2023-06-22T09:18:47;100256.72;;;24.93;86.54
25722;BME280;13578;53.450;15.496;2023-06-22T09:21:48;100247.59;;;25.04;91.10
25722;BME280;13578;53.450;15.496;2023-06-22T09:24:49;100215.59;;;25.12;81.00
25722;BME280;13578;53.450;15.496;2023-06-22T09:27:50;100236.47;;;24.84;89.41
25722;BME280;13578;53.450;15.496;2023-06-22T09:30:50;100217.84;;;24.89;81.04
25722;BME280;13578;53.450;15.496;2023-06-22T09:33:54;100227.63;;;24.80;80.75
25722;BME280;13578;53.450;15.496;2023-06-22T09:36:55;100232.16;;;24.81;83.60
25722;BME280;13578;53.450;15.496;2023-06-22T09:39:57;100233.56;;;25.04;82.90
25722;BME280;13578;53.450;15.496;2023-06-22T09:42:58;100217.44;;;25.38;79.74
25722;BME280;13578;53.450;15.496;2023-06-22T09:45:58;100206.47;;;25.62;75.08
25722;BME280;13578;53.450;15.496;2023-06-22T09:48:59;100223.59;;;25.53;79.88
25722;BME280;13578;53.450;15.496;2023-06-22T09:51:59;100207.06;;;25.32;73.72
25722;BME280;13578;53.450;15.496;2023-06-22T09:55:00;100222.38;;;25.43;75.90
25722;BME280;13578;53.450;15.496;2023-06-22T09:58:01;100213.66;;;25.51;75.67
25722;BME280;13578;53.450;15.496;2023-06-22T10:01:01;100212.75;;;25.57;73.80
25722;BME280;13578;53.450;15.496;2023-06-22T10:04:02;100206.91;;;25.84;72.05
25722;BME280;13578;53.450;15.496;2023-06-22T10:07:03;100206.78;;;25.72;70.06
25722;BME280;13578;53.450;15.496;2023-06-22T10:10:04;100197.00;;;25.56;69.81
25722;BME280;13578;53.450;15.496;2023-06-22T10:13:11;100220.31;;;25.57;72.37
25722;BME280;13578;53.450;15.496;2023-06-22T10:16:11;100200.91;;;25.48;69.03
25722;BME280;13578;53.450;15.496;2023-06-22T10:19:12;100211.81;;;25.31;71.74
25722;BME280;13578;53.450;15.496;2023-06-22T10:22:12;100220.66;;;25.35;74.01
25722;BME280;13578;53.450;15.496;2023-06-22T10:25:13;100229.31;;;25.40;73.64
25722;BME280;13578;53.450;15.496;2023-06-22T10:28:14;100218.91;;;25.73;70.57
25722;BME280;13578;53.450;15.496;2023-06-22T10:31:14;100206.63;;;25.92;67.15
25722;BME280;13578;53.450;15.496;2023-06-22T10:34:16;100208.19;;;26.13;68.20
25722;BME280;13578;53.450;15.496;2023-06-22T10:37:17;100219.53;;;26.25;68.86
25722;BME280;13578;53.450;15.496;2023-06-22T10:40:18;100213.00;;;26.31;69.00
25722;BME280;13578;53.450;15.496;2023-06-22T10:43:19;100197.59;;;26.34;62.13
25722;BME280;13578;53.450;15.496;2023-06-22T10:46:20;100213.09;;;26.18;62.70
25722;BME280;13578;53.450;15.496;2023-06-22T10:49:20;100208.13;;;25.95;60.29
25722;BME280;13578;53.450;15.496;2023-06-22T10:52:21;100227.34;;;25.73;64.05
25722;BME280;13578;53.450;15.496;2023-06-22T10:55:21;100215.97;;;25.61;64.80
25722;BME280;13578;53.450;15.496;2023-06-22T10:58:22;100211.78;;;25.70;62.66
25722;BME280;13578;53.450;15.496;2023-06-22T11:01:23;100212.28;;;25.85;63.74
25722;BME280;13578;53.450;15.496;2023-06-22T11:04:23;100207.88;;;25.96;62.83
25722;BME280;13578;53.450;15.496;2023-06-22T11:07:24;100208.34;;;26.19;63.22
25722;BME280;13578;53.450;15.496;2023-06-22T11:10:24;100199.03;;;26.18;60.29
25722;BME280;13578;53.450;15.496;2023-06-22T11:13:26;100212.34;;;26.29;63.23
25722;BME280;13578;53.450;15.496;2023-06-22T11:16:27;100199.88;;;26.44;62.52
25722;BME280;13578;53.450;15.496;2023-06-22T11:19:28;100196.97;;;26.69;64.04
25722;BME280;13578;53.450;15.496;2023-06-22T11:22:28;100181.78;;;27.07;59.32
25722;BME280;13578;53.450;15.496;2023-06-22T11:25:30;100198.03;;;27.05;60.85
25722;BME280;13578;53.450;15.496;2023-06-22T11:28:30;100182.56;;;26.96;60.24
25722;BME280;13578;53.450;15.496;2023-06-22T11:31:32;100183.38;;;26.85;58.64
25722;BME280;13578;53.450;15.496;2023-06-22T11:34:33;100177.56;;;26.61;58.88
25722;BME280;13578;53.450;15.496;2023-06-22T11:37:33;100186.97;;;26.92;62.09
25722;BME280;13578;53.450;15.496;2023-06-22T11:40:34;100199.31;;;27.21;62.39
25722;BME280;13578;53.450;15.496;2023-06-22T11:43:35;100176.44;;;27.30;59.43
25722;BME280;13578;53.450;15.496;2023-06-22T11:46:36;100166.91;;;27.31;56.12
25722;BME280;13578;53.450;15.496;2023-06-22T11:49:37;100165.25;;;27.41;56.53
25722;BME280;13578;53.450;15.496;2023-06-22T11:52:37;100158.75;;;27.10;56.44
25722;BME280;13578;53.450;15.496;2023-06-22T11:55:38;100164.91;;;26.89;58.69
25722;BME280;13578;53.450;15.496;2023-06-22T11:58:39;100175.13;;;27.02;60.58
25722;BME280;13578;53.450;15.496;2023-06-22T12:01:39;100162.31;;;27.18;59.01
25722;BME280;13578;53.450;15.496;2023-06-22T12:04:40;100155.47;;;27.14;60.19
25722;BME280;13578;53.450;15.496;2023-06-22T12:07:41;100162.16;;;27.31;59.72
25722;BME280;13578;53.450;15.496;2023-06-22T12:10:41;100147.00;;;27.14;56.98
25722;BME280;13578;53.450;15.496;2023-06-22T12:13:42;100130.91;;;27.33;54.55
25722;BME280;13578;53.450;15.496;2023-06-22T12:16:42;100139.31;;;27.21;55.70
25722;BME280;13578;53.450;15.496;2023-06-22T12:19:44;100125.50;;;27.19;54.03
25722;BME280;13578;53.450;15.496;2023-06-22T12:22:45;100125.81;;;27.11;54.10
25722;BME280;13578;53.450;15.496;2023-06-22T12:25:45;100120.69;;;27.20;54.53
25722;BME280;13578;53.450;15.496;2023-06-22T12:28:47;100122.31;;;27.39;53.46
25722;BME280;13578;53.450;15.496;2023-06-22T12:31:48;100111.84;;;27.47;50.58
25722;BME280;13578;53.450;15.496;2023-06-22T12:34:48;100114.97;;;27.26;52.42
25722;BME280;13578;53.450;15.496;2023-06-22T12:37:49;100115.06;;;27.20;51.64
25722;BME280;13578;53.450;15.496;2023-06-22T12:40:50;100109.56;;;27.13;51.79
25722;BME280;13578;53.450;15.496;2023-06-22T12:43:50;100119.69;;;27.45;53.64
25722;BME280;13578;53.450;15.496;2023-06-22T12:46:51;100124.22;;;27.69;52.79
25722;BME280;13578;53.450;15.496;2023-06-22T12:49:52;100124.81;;;27.48;52.61
25722;BME280;13578;53.450;15.496;2023-06-22T12:52:52;100117.47;;;27.58;52.49
25722;BME280;13578;53.450;15.496;2023-06-22T12:55:53;100118.34;;;27.47;53.06
25722;BME280;13578;53.450;15.496;2023-06-22T12:58:53;100109.41;;;27.62;53.81
25722;BME280;13578;53.450;15.496;2023-06-22T13:01:54;100103.00;;;27.43;53.14
25722;BME280;13578;53.450;15.496;2023-06-22T13:04:55;100122.50;;;27.68;54.83
25722;BME280;13578;53.450;15.496;2023-06-22T13:07:55;100113.94;;;27.75;52.21
25722;BME280;13578;53.450;15.496;2023-06-22T13:10:56;100106.81;;;27.49;51.98
25722;BME280;13578;53.450;15.496;2023-06-22T13:13:59;100103.53;;;27.52;52.72
25722;BME280;13578;53.450;15.496;2023-06-22T13:17:00;100103.16;;;27.48;53.11
25722;BME280;13578;53.450;15.496;2023-06-22T13:20:01;100097.09;;;27.33;51.33
25722;BME280;13578;53.450;15.496;2023-06-22T13:23:01;100103.09;;;27.24;53.40
25722;BME280;13578;53.450;15.496;2023-06-22T13:26:02;100095.13;;;27.33;52.81
25722;BME280;13578;53.450;15.496;2023-06-22T13:29:03;100098.38;;;27.49;51.65
25722;BME280;13578;53.450;15.496;2023-06-22T13:32:04;100089.25;;;27.23;52.47
25722;BME280;13578;53.450;15.496;2023-06-22T13:35:05;100093.91;;;27.29;53.03
25722;BME280;13578;53.450;15.496;2023-06-22T13:38:05;100093.16;;;27.22;52.70
25722;BME280;13578;53.450;15.496;2023-06-22T13:41:06;100097.63;;;27.41;52.61
25722;BME280;13578;53.450;15.496;2023-06-22T13:44:06;100084.22;;;27.37;51.27
25722;BME280;13578;53.450;15.496;2023-06-22T13:47:07;100079.09;;;27.34;49.70
25722;BME280;13578;53.450;15.496;2023-06-22T13:50:08;100080.41;;;27.07;50.06
25722;BME280;13578;53.450;15.496;2023-06-22T13:53:09;100080.66;;;27.18;50.88
25722;BME280;13578;53.450;15.496;2023-06-22T13:56:09;100078.38;;;26.96;48.80
25722;BME280;13578;53.450;15.496;2023-06-22T13:59:10;100090.06;;;27.11;49.82
25722;BME280;13578;53.450;15.496;2023-06-22T14:02:11;100076.91;;;27.48;49.11
25722;BME280;13578;53.450;15.496;2023-06-22T14:05:11;100077.44;;;27.45;49.54
25722;BME280;13578;53.450;15.496;2023-06-22T14:08:12;100065.66;;;27.48;49.07
25722;BME280;13578;53.450;15.496;2023-06-22T14:11:13;100070.41;;;27.35;49.10
25722;BME280;13578;53.450;15.496;2023-06-22T14:14:14;100074.28;;;27.22;49.93
25722;BME280;13578;53.450;15.496;2023-06-22T14:17:14;100063.38;;;27.26;49.52
25722;BME280;13578;53.450;15.496;2023-06-22T14:20:15;100057.31;;;27.41;49.70
25722;BME280;13578;53.450;15.496;2023-06-22T14:23:15;100063.03;;;27.22;50.19
25722;BME280;13578;53.450;15.496;2023-06-22T14:26:16;100050.34;;;27.44;48.47
25722;BME280;13578;53.450;15.496;2023-06-22T14:29:19;100054.75;;;27.51;47.36
25722;BME280;13578;53.450;15.496;2023-06-22T14:32:20;100063.19;;;27.27;49.12
25722;BME280;13578;53.450;15.496;2023-06-22T14:35:20;100052.50;;;27.30;48.83
25722;BME280;13578;53.450;15.496;2023-06-22T14:38:21;100052.88;;;27.33;48.21
25722;BME280;13578;53.450;15.496;2023-06-22T14:41:22;100058.50;;;27.33;49.23
25722;BME280;13578;53.450;15.496;2023-06-22T14:44:22;100047.00;;;27.35;48.39
25722;BME280;13578;53.450;15.496;2023-06-22T14:47:23;100054.72;;;27.27;48.83
25722;BME280;13578;53.450;15.496;2023-06-22T14:50:24;100054.50;;;27.41;48.96
25722;BME280;13578;53.450;15.496;2023-06-22T14:53:24;100049.31;;;27.26;48.39
25722;BME280;13578;53.450;15.496;2023-06-22T14:56:26;100048.22;;;27.39;47.86
25722;BME280;13578;53.450;15.496;2023-06-22T14:59:26;100041.72;;;27.26;48.30
25722;BME280;13578;53.450;15.496;2023-06-22T15:02:27;100050.31;;;27.32;48.17
25722;BME280;13578;53.450;15.496;2023-06-22T15:05:28;100056.59;;;27.46;48.32
25722;BME280;13578;53.450;15.496;2023-06-22T15:08:28;100049.13;;;27.51;46.78
25722;BME280;13578;53.450;15.496;2023-06-22T15:11:29;100048.47;;;27.37;47.80
25722;BME280;13578;53.450;15.496;2023-06-22T15:14:29;100038.53;;;27.23;47.49
25722;BME280;13578;53.450;15.496;2023-06-22T15:17:30;100051.91;;;27.27;48.12
25722;BME280;13578;53.450;15.496;2023-06-22T15:20:31;100045.13;;;27.29;48.05
25722;BME280;13578;53.450;15.496;2023-06-22T15:23:32;100031.44;;;27.08;47.47
25722;BME280;13578;53.450;15.496;2023-06-22T15:26:33;100030.59;;;27.32;47.66
25722;BME280;13578;53.450;15.496;2023-06-22T15:29:33;100015.16;;;27.34;46.90
25722;BME280;13578;53.450;15.496;2023-06-22T15:32:34;100015.78;;;27.36;46.40
25722;BME280;13578;53.450;15.496;2023-06-22T15:35:35;100016.53;;;27.44;47.26